sensor_id;sensor_type;location;lat;lon;timestamp;temperature;humidity
1379;DHT22;683;48.738;9.226;2023-03-01T00:01:42;-1.50;96.00
1379;DHT22;683;48.738;9.226;2023-03-01T00:04:10;-1.60;96.00
1379;DHT22;683;48.738;9.226;2023-03-01T00:06:42;-1.60;96.20
1379;DHT22;683;48.738;9.226;2023-03-01T00:09:14;-1.60;96.30
1379;DHT22;683;48.738;9.226;2023-03-01T00:11:42;-1.60;96.30
1379;DHT22;683;48.738;9.226;2023-03-01T00:14:10;-1.60;96.40
1379;DHT22;683;48.738;9.226;2023-03-01T00:16:39;-1.60;96.60
1379;DHT22;683;48.738;9.226;2023-03-01T00:19:11;-1.70;96.60
1379;DHT22;683;48.738;9.226;2023-03-01T00:21:42;-1.70;96.60
1379;DHT22;683;48.738;9.226;2023-03-01T00:24:09;-1.70;96.70
1379;DHT22;683;48.738;9.226;2023-03-01T00:26:37;-1.70;96.90
1379;DHT22;683;48.738;9.226;2023-03-01T00:29:07;-1.80;96.90
1379;DHT22;683;48.738;9.226;2023-03-01T00:31:34;-1.80;97.00
1379;DHT22;683;48.738;9.226;2023-03-01T00:34:03;-1.80;97.20
1379;DHT22;683;48.738;9.226;2023-03-01T00:36:35;-1.80;97.30
1379;DHT22;683;48.738;9.226;2023-03-01T00:39:03;-1.80;97.40
1379;DHT22;683;48.738;9.226;2023-03-01T00:41:31;-1.80;97.50
1379;DHT22;683;48.738;9.226;2023-03-01T00:44:03;-1.80;97.60
1379;DHT22;683;48.738;9.226;2023-03-01T00:46:31;-1.80;97.80
1379;DHT22;683;48.738;9.226;2023-03-01T00:49:00;-1.80;97.80
1379;DHT22;683;48.738;9.226;2023-03-01T00:51:29;-1.80;97.80
1379;DHT22;683;48.738;9.226;2023-03-01T00:54:01;-1.80;97.90
1379;DHT22;683;48.738;9.226;2023-03-01T00:56:31;-1.80;98.00
1379;DHT22;683;48.738;9.226;2023-03-01T00:59:00;-1.80;98.10
1379;DHT22;683;48.738;9.226;2023-03-01T01:01:31;-1.80;98.20
1379;DHT22;683;48.738;9.226;2023-03-01T01:04:03;-1.80;98.50
1379;DHT22;683;48.738;9.226;2023-03-01T01:06:32;-1.80;98.20
1379;DHT22;683;48.738;9.226;2023-03-01T01:09:05;-1.90;98.30
1379;DHT22;683;48.738;9.226;2023-03-01T01:11:33;-1.90;98.40
1379;DHT22;683;48.738;9.226;2023-03-01T01:14:02;-1.80;98.40
1379;DHT22;683;48.738;9.226;2023-03-01T01:16:33;-1.80;98.50
1379;DHT22;683;48.738;9.226;2023-03-01T01:19:01;-1.80;98.50
1379;DHT22;683;48.738;9.226;2023-03-01T01:21:31;-1.80;98.80
1379;DHT22;683;48.738;9.226;2023-03-01T01:24:07;-1.90;98.50
1379;DHT22;683;48.738;9.226;2023-03-01T01:26:37;-1.90;98.60
1379;DHT22;683;48.738;9.226;2023-03-01T01:29:05;-1.90;98.60
1379;DHT22;683;48.738;9.226;2023-03-01T01:31:34;-2.00;98.70
1379;DHT22;683;48.738;9.226;2023-03-01T01:34:03;-2.00;98.80
1379;DHT22;683;48.738;9.226;2023-03-01T01:36:31;-2.00;98.90
1379;DHT22;683;48.738;9.226;2023-03-01T01:38:59;-2.00;99.10
1379;DHT22;683;48.738;9.226;2023-03-01T01:41:28;-1.90;99.10
1379;DHT22;683;48.738;9.226;2023-03-01T01:44:26;-1.90;99.20
1379;DHT22;683;48.738;9.226;2023-03-01T01:46:57;-1.90;99.20
1379;DHT22;683;48.738;9.226;2023-03-01T01:49:30;-1.90;99.30
1379;DHT22;683;48.738;9.226;2023-03-01T01:52:11;-1.80;99.40
1379;DHT22;683;48.738;9.226;2023-03-01T01:54:44;-1.70;99.40
1379;DHT22;683;48.738;9.226;2023-03-01T01:57:16;-1.60;99.30
1379;DHT22;683;48.738;9.226;2023-03-01T01:59:52;-1.50;99.00
1379;DHT22;683;48.738;9.226;2023-03-01T02:02:24;-1.40;98.60
1379;DHT22;683;48.738;9.226;2023-03-01T02:05:01;-1.30;98.50
1379;DHT22;683;48.738;9.226;2023-03-01T02:07:30;-1.20;98.40
1379;DHT22;683;48.738;9.226;2023-03-01T02:10:00;-1.10;98.20
1379;DHT22;683;48.738;9.226;2023-03-01T02:12:29;-1.10;98.10
1379;DHT22;683;48.738;9.226;2023-03-01T02:14:58;-1.00;97.90
1379;DHT22;683;48.738;9.226;2023-03-01T02:17:28;-1.00;97.80
1379;DHT22;683;48.738;9.226;2023-03-01T02:20:04;-0.90;97.80
1379;DHT22;683;48.738;9.226;2023-03-01T02:22:37;-0.90;97.80
1379;DHT22;683;48.738;9.226;2023-03-01T02:25:19;-0.80;97.50
1379;DHT22;683;48.738;9.226;2023-03-01T02:27:54;-0.80;97.30
1379;DHT22;683;48.738;9.226;2023-03-01T02:30:24;-0.80;97.20
1379;DHT22;683;48.738;9.226;2023-03-01T02:32:56;-0.70;97.00
1379;DHT22;683;48.738;9.226;2023-03-01T02:35:32;-0.70;97.00
1379;DHT22;683;48.738;9.226;2023-03-01T02:38:02;-0.70;96.80
1379;DHT22;683;48.738;9.226;2023-03-01T02:40:38;-0.60;96.60
1379;DHT22;683;48.738;9.226;2023-03-01T02:43:12;-0.60;96.50
1379;DHT22;683;48.738;9.226;2023-03-01T02:45:48;-0.60;96.40
1379;DHT22;683;48.738;9.226;2023-03-01T02:48:16;-0.60;96.30
1379;DHT22;683;48.738;9.226;2023-03-01T02:51:00;-0.50;96.30
1379;DHT22;683;48.738;9.226;2023-03-01T02:53:38;-0.50;96.30
1379;DHT22;683;48.738;9.226;2023-03-01T02:56:06;-0.50;96.30
1379;DHT22;683;48.738;9.226;2023-03-01T02:58:40;-0.50;96.20
1379;DHT22;683;48.738;9.226;2023-03-01T03:01:13;-0.50;96.30
1379;DHT22;683;48.738;9.226;2023-03-01T03:03:42;-0.50;96.20
1379;DHT22;683;48.738;9.226;2023-03-01T03:06:10;-0.50;96.30
1379;DHT22;683;48.738;9.226;2023-03-01T03:08:38;-0.50;96.20
1379;DHT22;683;48.738;9.226;2023-03-01T03:11:08;-0.50;96.20
1379;DHT22;683;48.738;9.226;2023-03-01T03:13:35;-0.50;96.10
1379;DHT22;683;48.738;9.226;2023-03-01T03:16:03;-0.40;95.90
1379;DHT22;683;48.738;9.226;2023-03-01T03:18:32;-0.50;95.90
1379;DHT22;683;48.738;9.226;2023-03-01T03:20:59;-0.50;95.90
1379;DHT22;683;48.738;9.226;2023-03-01T03:23:28;-0.40;96.00
1379;DHT22;683;48.738;9.226;2023-03-01T03:25:56;-0.50;96.00
1379;DHT22;683;48.738;9.226;2023-03-01T03:28:23;-0.50;96.00
1379;DHT22;683;48.738;9.226;2023-03-01T03:30:50;-0.40;96.10
1379;DHT22;683;48.738;9.226;2023-03-01T03:33:18;-0.40;95.90
1379;DHT22;683;48.738;9.226;2023-03-01T03:35:48;-0.40;95.90
1379;DHT22;683;48.738;9.226;2023-03-01T03:38:18;-0.40;95.80
1379;DHT22;683;48.738;9.226;2023-03-01T03:40:49;-0.40;95.90
1379;DHT22;683;48.738;9.226;2023-03-01T03:43:18;-0.40;95.90
1379;DHT22;683;48.738;9.226;2023-03-01T03:45:46;-0.40;96.00
1379;DHT22;683;48.738;9.226;2023-03-01T03:48:14;-0.40;96.10
1379;DHT22;683;48.738;9.226;2023-03-01T03:50:41;-0.40;96.50
1379;DHT22;683;48.738;9.226;2023-03-01T03:53:24;-0.40;96.10
1379;DHT22;683;48.738;9.226;2023-03-01T03:55:53;-0.40;96.20
1379;DHT22;683;48.738;9.226;2023-03-01T03:58:23;-0.40;96.10
1379;DHT22;683;48.738;9.226;2023-03-01T04:00:53;-0.40;96.20
1379;DHT22;683;48.738;9.226;2023-03-01T04:03:23;-0.40;96.30
1379;DHT22;683;48.738;9.226;2023-03-01T04:05:51;-0.40;96.20
1379;DHT22;683;48.738;9.226;2023-03-01T04:08:20;-0.40;96.10
1379;DHT22;683;48.738;9.226;2023-03-01T04:10:57;-0.40;96.20
1379;DHT22;683;48.738;9.226;2023-03-01T04:13:25;-0.40;96.20
1379;DHT22;683;48.738;9.226;2023-03-01T04:15:56;-0.40;96.20
1379;DHT22;683;48.738;9.226;2023-03-01T04:18:28;-0.40;96.10
1379;DHT22;683;48.738;9.226;2023-03-01T04:20:56;-0.40;96.20
1379;DHT22;683;48.738;9.226;2023-03-01T04:23:23;-0.40;96.30
1379;DHT22;683;48.738;9.226;2023-03-01T04:25:54;-0.40;96.20
1379;DHT22;683;48.738;9.226;2023-03-01T04:28:22;-0.40;96.10
1379;DHT22;683;48.738;9.226;2023-03-01T04:30:51;-0.40;96.10
1379;DHT22;683;48.738;9.226;2023-03-01T04:33:19;-0.30;96.10
1379;DHT22;683;48.738;9.226;2023-03-01T04:35:46;-0.30;96.00
1379;DHT22;683;48.738;9.226;2023-03-01T04:38:15;-0.30;95.90
1379;DHT22;683;48.738;9.226;2023-03-01T04:40:42;-0.30;96.00
1379;DHT22;683;48.738;9.226;2023-03-01T04:43:12;-0.20;96.00
1379;DHT22;683;48.738;9.226;2023-03-01T04:45:40;-0.20;96.00
1379;DHT22;683;48.738;9.226;2023-03-01T04:48:07;-0.20;96.00
1379;DHT22;683;48.738;9.226;2023-03-01T04:50:35;-0.20;96.00
1379;DHT22;683;48.738;9.226;2023-03-01T04:53:02;-0.20;96.10
1379;DHT22;683;48.738;9.226;2023-03-01T04:55:30;-0.20;96.10
1379;DHT22;683;48.738;9.226;2023-03-01T04:57:57;-0.20;96.00
1379;DHT22;683;48.738;9.226;2023-03-01T05:00:28;-0.20;95.80
1379;DHT22;683;48.738;9.226;2023-03-01T05:02:57;-0.20;95.80
1379;DHT22;683;48.738;9.226;2023-03-01T05:05:28;-0.20;95.80
1379;DHT22;683;48.738;9.226;2023-03-01T05:07:57;-0.20;95.80
1379;DHT22;683;48.738;9.226;2023-03-01T05:10:25;-0.10;95.80
1379;DHT22;683;48.738;9.226;2023-03-01T05:12:56;-0.10;95.70
1379;DHT22;683;48.738;9.226;2023-03-01T05:15:24;-0.10;95.80
1379;DHT22;683;48.738;9.226;2023-03-01T05:17:54;-0.10;95.90
1379;DHT22;683;48.738;9.226;2023-03-01T05:20:25;-0.10;95.80
1379;DHT22;683;48.738;9.226;2023-03-01T05:22:56;-0.10;95.90
1379;DHT22;683;48.738;9.226;2023-03-01T05:25:24;-0.10;95.80
1379;DHT22;683;48.738;9.226;2023-03-01T05:27:56;-0.20;95.90
1379;DHT22;683;48.738;9.226;2023-03-01T05:30:23;-0.20;95.90
1379;DHT22;683;48.738;9.226;2023-03-01T05:32:50;-0.20;96.00
1379;DHT22;683;48.738;9.226;2023-03-01T05:35:22;-0.20;96.00
1379;DHT22;683;48.738;9.226;2023-03-01T05:37:50;-0.20;96.00
1379;DHT22;683;48.738;9.226;2023-03-01T05:40:23;-0.20;96.00
1379;DHT22;683;48.738;9.226;2023-03-01T05:42:52;-0.20;96.00
1379;DHT22;683;48.738;9.226;2023-03-01T05:45:21;-0.20;96.10
1379;DHT22;683;48.738;9.226;2023-03-01T05:47:49;-0.20;96.00
1379;DHT22;683;48.738;9.226;2023-03-01T05:50:19;-0.20;95.90
1379;DHT22;683;48.738;9.226;2023-03-01T05:52:52;-0.20;96.00
1379;DHT22;683;48.738;9.226;2023-03-01T05:55:20;-0.20;96.10
1379;DHT22;683;48.738;9.226;2023-03-01T05:57:48;-0.10;96.10
1379;DHT22;683;48.738;9.226;2023-03-01T06:00:18;-0.20;96.10
1379;DHT22;683;48.738;9.226;2023-03-01T06:02:48;-0.20;96.00
1379;DHT22;683;48.738;9.226;2023-03-01T06:05:16;-0.10;96.10
1379;DHT22;683;48.738;9.226;2023-03-01T06:07:43;-0.10;96.20
1379;DHT22;683;48.738;9.226;2023-03-01T06:10:17;-0.20;96.10
1379;DHT22;683;48.738;9.226;2023-03-01T06:12:45;-0.10;96.20
1379;DHT22;683;48.738;9.226;2023-03-01T06:15:14;-0.10;96.10
1379;DHT22;683;48.738;9.226;2023-03-01T06:17:43;-0.10;96.20
1379;DHT22;683;48.738;9.226;2023-03-01T06:20:15;-0.20;96.10
1379;DHT22;683;48.738;9.226;2023-03-01T06:22:44;-0.20;96.30
1379;DHT22;683;48.738;9.226;2023-03-01T06:25:15;-0.20;96.20
1379;DHT22;683;48.738;9.226;2023-03-01T06:27:46;-0.20;96.10
1379;DHT22;683;48.738;9.226;2023-03-01T06:30:17;-0.20;96.30
1379;DHT22;683;48.738;9.226;2023-03-01T06:32:44;-0.20;96.30
1379;DHT22;683;48.738;9.226;2023-03-01T06:35:13;-0.10;96.30
1379;DHT22;683;48.738;9.226;2023-03-01T06:37:43;-0.10;96.30
1379;DHT22;683;48.738;9.226;2023-03-01T06:40:13;-0.10;96.40
1379;DHT22;683;48.738;9.226;2023-03-01T06:42:42;0.00;96.30
1379;DHT22;683;48.738;9.226;2023-03-01T06:45:13;0.10;96.30
1379;DHT22;683;48.738;9.226;2023-03-01T06:47:40;0.10;96.20
1379;DHT22;683;48.738;9.226;2023-03-01T06:50:09;0.10;96.10
1379;DHT22;683;48.738;9.226;2023-03-01T06:52:38;0.00;96.20
1379;DHT22;683;48.738;9.226;2023-03-01T06:55:06;0.00;96.40
1379;DHT22;683;48.738;9.226;2023-03-01T06:57:36;0.00;96.30
1379;DHT22;683;48.738;9.226;2023-03-01T07:00:05;-0.10;96.60
1379;DHT22;683;48.738;9.226;2023-03-01T07:02:32;-0.20;96.50
1379;DHT22;683;48.738;9.226;2023-03-01T07:05:00;-0.30;96.50
1379;DHT22;683;48.738;9.226;2023-03-01T07:07:27;-0.30;96.70
1379;DHT22;683;48.738;9.226;2023-03-01T07:09:54;-0.30;96.60
1379;DHT22;683;48.738;9.226;2023-03-01T07:12:22;-0.30;96.70
1379;DHT22;683;48.738;9.226;2023-03-01T07:14:52;-0.40;96.70
1379;DHT22;683;48.738;9.226;2023-03-01T07:17:20;-0.50;96.90
1379;DHT22;683;48.738;9.226;2023-03-01T07:19:47;-0.40;97.10
1379;DHT22;683;48.738;9.226;2023-03-01T07:22:15;-0.40;97.00
1379;DHT22;683;48.738;9.226;2023-03-01T07:24:42;-0.40;96.90
1379;DHT22;683;48.738;9.226;2023-03-01T07:27:09;-0.30;97.10
1379;DHT22;683;48.738;9.226;2023-03-01T07:29:37;-0.40;97.00
1379;DHT22;683;48.738;9.226;2023-03-01T07:32:08;-0.40;96.90
1379;DHT22;683;48.738;9.226;2023-03-01T07:34:36;-0.30;97.00
1379;DHT22;683;48.738;9.226;2023-03-01T07:37:05;-0.30;96.80
1379;DHT22;683;48.738;9.226;2023-03-01T07:39:33;-0.30;96.90
1379;DHT22;683;48.738;9.226;2023-03-01T07:42:00;-0.20;96.90
1379;DHT22;683;48.738;9.226;2023-03-01T07:44:29;-0.20;96.80
1379;DHT22;683;48.738;9.226;2023-03-01T07:46:56;-0.10;96.70
1379;DHT22;683;48.738;9.226;2023-03-01T07:49:27;-0.10;96.60
1379;DHT22;683;48.738;9.226;2023-03-01T07:51:57;0.00;96.50
1379;DHT22;683;48.738;9.226;2023-03-01T07:54:27;0.10;96.40
1379;DHT22;683;48.738;9.226;2023-03-01T07:56:55;0.20;96.30
1379;DHT22;683;48.738;9.226;2023-03-01T07:59:26;0.20;96.20
1379;DHT22;683;48.738;9.226;2023-03-01T08:01:55;0.30;96.00
1379;DHT22;683;48.738;9.226;2023-03-01T08:04:22;0.40;95.90
1379;DHT22;683;48.738;9.226;2023-03-01T08:06:52;0.40;96.20
1379;DHT22;683;48.738;9.226;2023-03-01T08:09:22;0.50;95.70
1379;DHT22;683;48.738;9.226;2023-03-01T08:11:49;0.50;95.50
1379;DHT22;683;48.738;9.226;2023-03-01T08:14:18;0.50;95.70
1379;DHT22;683;48.738;9.226;2023-03-01T08:16:49;0.70;95.60
1379;DHT22;683;48.738;9.226;2023-03-01T08:19:16;0.70;95.30
1379;DHT22;683;48.738;9.226;2023-03-01T08:21:44;0.90;95.00
1379;DHT22;683;48.738;9.226;2023-03-01T08:24:13;0.90;94.60
1379;DHT22;683;48.738;9.226;2023-03-01T08:26:40;1.00;94.50
1379;DHT22;683;48.738;9.226;2023-03-01T08:29:11;1.00;94.40
1379;DHT22;683;48.738;9.226;2023-03-01T08:31:40;1.10;94.30
1379;DHT22;683;48.738;9.226;2023-03-01T08:34:14;1.20;93.90
1379;DHT22;683;48.738;9.226;2023-03-01T08:36:43;1.30;93.70
1379;DHT22;683;48.738;9.226;2023-03-01T08:39:14;1.30;93.50
1379;DHT22;683;48.738;9.226;2023-03-01T08:41:42;1.40;93.40
1379;DHT22;683;48.738;9.226;2023-03-01T08:44:10;1.40;93.30
1379;DHT22;683;48.738;9.226;2023-03-01T08:46:39;1.40;93.30
1379;DHT22;683;48.738;9.226;2023-03-01T08:49:08;1.40;93.20
1379;DHT22;683;48.738;9.226;2023-03-01T08:51:35;1.50;93.20
1379;DHT22;683;48.738;9.226;2023-03-01T08:54:06;1.60;92.80
1379;DHT22;683;48.738;9.226;2023-03-01T08:56:40;1.80;92.50
1379;DHT22;683;48.738;9.226;2023-03-01T08:59:11;1.80;92.20
1379;DHT22;683;48.738;9.226;2023-03-01T09:01:39;1.80;92.10
1379;DHT22;683;48.738;9.226;2023-03-01T09:04:09;1.90;92.10
1379;DHT22;683;48.738;9.226;2023-03-01T09:06:36;2.00;91.80
1379;DHT22;683;48.738;9.226;2023-03-01T09:09:04;2.00;91.40
1379;DHT22;683;48.738;9.226;2023-03-01T09:11:32;2.00;91.30
1379;DHT22;683;48.738;9.226;2023-03-01T09:14:04;2.00;91.40
1379;DHT22;683;48.738;9.226;2023-03-01T09:16:32;2.10;91.30
1379;DHT22;683;48.738;9.226;2023-03-01T09:19:02;2.20;91.10
1379;DHT22;683;48.738;9.226;2023-03-01T09:21:31;2.30;90.80
1379;DHT22;683;48.738;9.226;2023-03-01T09:23:58;2.30;90.60
1379;DHT22;683;48.738;9.226;2023-03-01T09:26:26;2.40;90.60
1379;DHT22;683;48.738;9.226;2023-03-01T09:28:54;2.50;90.50
1379;DHT22;683;48.738;9.226;2023-03-01T09:31:24;2.60;90.20
1379;DHT22;683;48.738;9.226;2023-03-01T09:33:53;2.70;89.70
1379;DHT22;683;48.738;9.226;2023-03-01T09:36:23;2.80;88.90
1379;DHT22;683;48.738;9.226;2023-03-01T09:38:51;2.90;89.20
1379;DHT22;683;48.738;9.226;2023-03-01T09:41:31;2.90;87.70
1379;DHT22;683;48.738;9.226;2023-03-01T09:44:04;3.00;88.10
1379;DHT22;683;48.738;9.226;2023-03-01T09:46:40;3.10;88.60
1379;DHT22;683;48.738;9.226;2023-03-01T09:49:10;3.20;88.40
1379;DHT22;683;48.738;9.226;2023-03-01T09:51:39;3.40;86.50
1379;DHT22;683;48.738;9.226;2023-03-01T09:54:06;3.60;87.30
1379;DHT22;683;48.738;9.226;2023-03-01T09:56:39;3.70;85.60
1379;DHT22;683;48.738;9.226;2023-03-01T09:59:16;3.60;85.00
1379;DHT22;683;48.738;9.226;2023-03-01T10:01:55;3.50;85.10
1379;DHT22;683;48.738;9.226;2023-03-01T10:04:28;3.50;84.70
1379;DHT22;683;48.738;9.226;2023-03-01T10:07:12;3.60;84.60
1379;DHT22;683;48.738;9.226;2023-03-01T10:09:43;3.60;84.20
1379;DHT22;683;48.738;9.226;2023-03-01T10:12:14;3.70;84.00
1379;DHT22;683;48.738;9.226;2023-03-01T10:14:49;3.80;84.40
1379;DHT22;683;48.738;9.226;2023-03-01T10:17:25;3.80;84.40
1379;DHT22;683;48.738;9.226;2023-03-01T10:19:55;3.90;84.50
1379;DHT22;683;48.738;9.226;2023-03-01T10:22:28;3.80;84.50
1379;DHT22;683;48.738;9.226;2023-03-01T10:24:58;3.80;84.50
1379;DHT22;683;48.738;9.226;2023-03-01T10:27:33;3.90;83.90
1379;DHT22;683;48.738;9.226;2023-03-01T10:30:09;3.90;83.20
1379;DHT22;683;48.738;9.226;2023-03-01T10:32:39;3.90;83.80
1379;DHT22;683;48.738;9.226;2023-03-01T10:35:16;3.90;84.30
1379;DHT22;683;48.738;9.226;2023-03-01T10:37:57;4.00;84.10
1379;DHT22;683;48.738;9.226;2023-03-01T10:40:24;4.10;83.00
1379;DHT22;683;48.738;9.226;2023-03-01T10:42:52;4.20;83.30
1379;DHT22;683;48.738;9.226;2023-03-01T10:45:33;4.30;82.60
1379;DHT22;683;48.738;9.226;2023-03-01T10:48:12;4.50;81.30
1379;DHT22;683;48.738;9.226;2023-03-01T10:50:41;4.50;82.20
1379;DHT22;683;48.738;9.226;2023-03-01T10:53:24;4.50;81.30
1379;DHT22;683;48.738;9.226;2023-03-01T10:56:03;4.40;82.10
1379;DHT22;683;48.738;9.226;2023-03-01T10:58:36;4.50;81.80
1379;DHT22;683;48.738;9.226;2023-03-01T11:01:05;4.60;80.80
1379;DHT22;683;48.738;9.226;2023-03-01T11:03:35;4.70;81.00
1379;DHT22;683;48.738;9.226;2023-03-01T11:06:08;4.80;80.10
1379;DHT22;683;48.738;9.226;2023-03-01T11:08:48;4.80;80.20
1379;DHT22;683;48.738;9.226;2023-03-01T11:11:23;4.80;80.40
1379;DHT22;683;48.738;9.226;2023-03-01T11:13:56;4.80;80.70
1379;DHT22;683;48.738;9.226;2023-03-01T11:16:33;4.90;80.40
1379;DHT22;683;48.738;9.226;2023-03-01T11:19:18;4.80;79.70
1379;DHT22;683;48.738;9.226;2023-03-01T11:22:02;4.80;80.30
1379;DHT22;683;48.738;9.226;2023-03-01T11:24:36;4.90;80.40
1379;DHT22;683;48.738;9.226;2023-03-01T11:27:12;5.00;80.00
1379;DHT22;683;48.738;9.226;2023-03-01T11:29:44;5.00;80.00
1379;DHT22;683;48.738;9.226;2023-03-01T11:32:14;5.00;79.00
1379;DHT22;683;48.738;9.226;2023-03-01T11:34:48;4.90;79.60
1379;DHT22;683;48.738;9.226;2023-03-01T11:37:22;5.00;79.90
1379;DHT22;683;48.738;9.226;2023-03-01T11:39:58;5.00;80.20
1379;DHT22;683;48.738;9.226;2023-03-01T11:42:35;5.10;80.10
1379;DHT22;683;48.738;9.226;2023-03-01T11:45:08;5.20;80.10
1379;DHT22;683;48.738;9.226;2023-03-01T11:47:52;5.30;78.70
1379;DHT22;683;48.738;9.226;2023-03-01T11:50:30;5.40;78.70
1379;DHT22;683;48.738;9.226;2023-03-01T11:53:28;5.40;79.10
1379;DHT22;683;48.738;9.226;2023-03-01T11:56:06;5.50;79.10
1379;DHT22;683;48.738;9.226;2023-03-01T11:59:13;5.50;79.00
1379;DHT22;683;48.738;9.226;2023-03-01T12:02:07;5.50;78.20
1379;DHT22;683;48.738;9.226;2023-03-01T12:05:03;5.60;78.70
1379;DHT22;683;48.738;9.226;2023-03-01T12:07:44;5.80;77.90
1379;DHT22;683;48.738;9.226;2023-03-01T12:10:22;5.90;77.00
1379;DHT22;683;48.738;9.226;2023-03-01T12:13:06;6.10;77.20
1379;DHT22;683;48.738;9.226;2023-03-01T12:15:46;6.20;77.00
1379;DHT22;683;48.738;9.226;2023-03-01T12:21:23;6.20;77.50
1379;DHT22;683;48.738;9.226;2023-03-01T12:24:39;6.20;78.00
1379;DHT22;683;48.738;9.226;2023-03-01T12:27:34;6.30;77.20
1379;DHT22;683;48.738;9.226;2023-03-01T12:30:21;6.50;76.70
1379;DHT22;683;48.738;9.226;2023-03-01T12:33:00;6.50;76.80
1379;DHT22;683;48.738;9.226;2023-03-01T12:35:39;6.60;76.60
1379;DHT22;683;48.738;9.226;2023-03-01T12:38:24;6.60;76.70
1379;DHT22;683;48.738;9.226;2023-03-01T12:43:58;6.60;75.60
1379;DHT22;683;48.738;9.226;2023-03-01T12:46:40;6.60;76.10
1379;DHT22;683;48.738;9.226;2023-03-01T12:49:14;6.70;76.10
1379;DHT22;683;48.738;9.226;2023-03-01T12:51:46;6.70;77.70
1379;DHT22;683;48.738;9.226;2023-03-01T12:54:26;6.70;76.10
1379;DHT22;683;48.738;9.226;2023-03-01T12:56:57;6.90;75.80
1379;DHT22;683;48.738;9.226;2023-03-01T12:59:31;7.10;75.80
1379;DHT22;683;48.738;9.226;2023-03-01T13:02:08;7.30;75.30
1379;DHT22;683;48.738;9.226;2023-03-01T13:04:52;7.50;75.10
1379;DHT22;683;48.738;9.226;2023-03-01T13:07:28;7.60;73.60
1379;DHT22;683;48.738;9.226;2023-03-01T13:10:06;7.90;73.50
1379;DHT22;683;48.738;9.226;2023-03-01T13:13:02;8.40;72.40
1379;DHT22;683;48.738;9.226;2023-03-01T13:15:37;8.80;71.20
1379;DHT22;683;48.738;9.226;2023-03-01T13:18:31;9.10;70.00
1379;DHT22;683;48.738;9.226;2023-03-01T13:21:02;9.50;68.50
1379;DHT22;683;48.738;9.226;2023-03-01T13:23:35;9.60;67.40
1379;DHT22;683;48.738;9.226;2023-03-01T13:26:14;9.80;67.40
1379;DHT22;683;48.738;9.226;2023-03-01T13:28:48;10.00;64.60
1379;DHT22;683;48.738;9.226;2023-03-01T13:34:42;10.60;63.00
1379;DHT22;683;48.738;9.226;2023-03-01T13:37:17;10.40;63.30
1379;DHT22;683;48.738;9.226;2023-03-01T13:39:45;10.80;62.80
1379;DHT22;683;48.738;9.226;2023-03-01T13:42:40;11.60;61.00
1379;DHT22;683;48.738;9.226;2023-03-01T13:45:19;11.80;59.60
1379;DHT22;683;48.738;9.226;2023-03-01T13:47:49;11.80;60.20
1379;DHT22;683;48.738;9.226;2023-03-01T13:50:25;12.50;58.60
1379;DHT22;683;48.738;9.226;2023-03-01T13:52:57;12.70;57.40
1379;DHT22;683;48.738;9.226;2023-03-01T13:55:34;12.90;56.10
1379;DHT22;683;48.738;9.226;2023-03-01T13:58:05;13.00;56.40
1379;DHT22;683;48.738;9.226;2023-03-01T14:00:40;13.00;56.10
1379;DHT22;683;48.738;9.226;2023-03-01T14:03:14;13.40;55.60
1379;DHT22;683;48.738;9.226;2023-03-01T14:05:50;13.60;54.50
1379;DHT22;683;48.738;9.226;2023-03-01T14:08:26;13.70;54.00
1379;DHT22;683;48.738;9.226;2023-03-01T14:11:16;13.00;55.70
1379;DHT22;683;48.738;9.226;2023-03-01T14:13:55;13.00;55.80
1379;DHT22;683;48.738;9.226;2023-03-01T14:16:34;12.80;55.60
1379;DHT22;683;48.738;9.226;2023-03-01T14:19:14;12.80;55.90
1379;DHT22;683;48.738;9.226;2023-03-01T14:21:48;12.80;55.20
1379;DHT22;683;48.738;9.226;2023-03-01T14:24:26;13.30;55.80
1379;DHT22;683;48.738;9.226;2023-03-01T14:26:54;13.30;54.70
1379;DHT22;683;48.738;9.226;2023-03-01T14:29:26;13.10;54.80
1379;DHT22;683;48.738;9.226;2023-03-01T14:31:54;13.00;55.20
1379;DHT22;683;48.738;9.226;2023-03-01T14:34:23;12.90;55.40
1379;DHT22;683;48.738;9.226;2023-03-01T14:36:53;13.20;54.90
1379;DHT22;683;48.738;9.226;2023-03-01T14:39:25;13.50;54.60
1379;DHT22;683;48.738;9.226;2023-03-01T14:41:52;14.30;53.30
1379;DHT22;683;48.738;9.226;2023-03-01T14:44:23;14.70;52.00
1379;DHT22;683;48.738;9.226;2023-03-01T14:46:53;14.60;51.60
1379;DHT22;683;48.738;9.226;2023-03-01T14:49:24;14.40;51.70
1379;DHT22;683;48.738;9.226;2023-03-01T14:51:56;13.60;52.80
1379;DHT22;683;48.738;9.226;2023-03-01T14:54:26;12.50;53.60
1379;DHT22;683;48.738;9.226;2023-03-01T14:57:00;11.90;55.10
1379;DHT22;683;48.738;9.226;2023-03-01T14:59:28;11.20;56.80
1379;DHT22;683;48.738;9.226;2023-03-01T15:01:57;10.70;57.20
1379;DHT22;683;48.738;9.226;2023-03-01T15:04:27;10.40;58.70
1379;DHT22;683;48.738;9.226;2023-03-01T15:06:57;10.00;58.60
1379;DHT22;683;48.738;9.226;2023-03-01T15:09:32;9.70;60.50
1379;DHT22;683;48.738;9.226;2023-03-01T15:15:32;9.10;62.20
1379;DHT22;683;48.738;9.226;2023-03-01T15:18:01;8.80;63.70
1379;DHT22;683;48.738;9.226;2023-03-01T15:20:30;8.80;63.90
1379;DHT22;683;48.738;9.226;2023-03-01T15:23:03;8.60;64.40
1379;DHT22;683;48.738;9.226;2023-03-01T15:25:31;8.50;64.70
1379;DHT22;683;48.738;9.226;2023-03-01T15:28:00;8.40;64.70
1379;DHT22;683;48.738;9.226;2023-03-01T15:30:32;8.40;64.70
1379;DHT22;683;48.738;9.226;2023-03-01T15:33:30;8.30;65.10
1379;DHT22;683;48.738;9.226;2023-03-01T15:35:58;8.20;65.40
1379;DHT22;683;48.738;9.226;2023-03-01T15:38:35;8.10;65.70
1379;DHT22;683;48.738;9.226;2023-03-01T15:41:19;8.00;65.30
1379;DHT22;683;48.738;9.226;2023-03-01T15:43:51;7.90;66.00
1379;DHT22;683;48.738;9.226;2023-03-01T15:46:27;7.80;66.30
1379;DHT22;683;48.738;9.226;2023-03-01T15:48:57;7.70;67.00
1379;DHT22;683;48.738;9.226;2023-03-01T15:51:31;7.60;67.20
1379;DHT22;683;48.738;9.226;2023-03-01T15:54:03;7.50;67.70
1379;DHT22;683;48.738;9.226;2023-03-01T15:56:31;7.40;67.40
1379;DHT22;683;48.738;9.226;2023-03-01T15:59:00;7.30;67.80
1379;DHT22;683;48.738;9.226;2023-03-01T16:01:28;7.30;68.40
1379;DHT22;683;48.738;9.226;2023-03-01T16:03:58;7.20;68.70
1379;DHT22;683;48.738;9.226;2023-03-01T16:06:25;7.00;69.00
1379;DHT22;683;48.738;9.226;2023-03-01T16:08:53;6.90;69.00
1379;DHT22;683;48.738;9.226;2023-03-01T16:11:21;6.80;69.40
1379;DHT22;683;48.738;9.226;2023-03-01T16:13:49;6.60;69.80
1379;DHT22;683;48.738;9.226;2023-03-01T16:16:17;6.50;70.00
1379;DHT22;683;48.738;9.226;2023-03-01T16:18:45;6.40;70.20
1379;DHT22;683;48.738;9.226;2023-03-01T16:21:14;6.30;70.40
1379;DHT22;683;48.738;9.226;2023-03-01T16:23:43;6.20;70.50
1379;DHT22;683;48.738;9.226;2023-03-01T16:26:13;6.20;70.70
1379;DHT22;683;48.738;9.226;2023-03-01T16:28:43;6.10;71.00
1379;DHT22;683;48.738;9.226;2023-03-01T16:31:11;6.00;71.20
1379;DHT22;683;48.738;9.226;2023-03-01T16:33:38;5.90;71.20
1379;DHT22;683;48.738;9.226;2023-03-01T16:36:08;5.80;71.70
1379;DHT22;683;48.738;9.226;2023-03-01T16:38:35;5.80;72.10
1379;DHT22;683;48.738;9.226;2023-03-01T16:41:03;5.70;72.10
1379;DHT22;683;48.738;9.226;2023-03-01T16:43:31;5.70;72.10
1379;DHT22;683;48.738;9.226;2023-03-01T16:46:00;5.60;72.00
1379;DHT22;683;48.738;9.226;2023-03-01T16:48:27;5.50;72.10
1379;DHT22;683;48.738;9.226;2023-03-01T16:50:58;5.40;72.30
1379;DHT22;683;48.738;9.226;2023-03-01T16:53:26;5.30;72.30
1379;DHT22;683;48.738;9.226;2023-03-01T16:55:54;5.30;72.60
1379;DHT22;683;48.738;9.226;2023-03-01T16:58:24;5.30;72.80
1379;DHT22;683;48.738;9.226;2023-03-01T17:00:52;5.20;73.00
1379;DHT22;683;48.738;9.226;2023-03-01T17:03:22;5.10;73.20
1379;DHT22;683;48.738;9.226;2023-03-01T17:05:49;5.00;73.30
1379;DHT22;683;48.738;9.226;2023-03-01T17:08:17;5.00;73.50